Route Details

Aircraft Information
Group: North America Fleet
Types: B738, B752, B762, B763
Route Data
Distance: 612nm
Duration: 2h 14m
Origin METAR: KRDU 010508Z 01007KT 2SM -RA BR OVC003 11/09 A3011 RMK AO2 DZE05RAB05 PRESRR P0000 T01060094
Dest. METAR: KRFD 010454Z 19004KT 10SM CLR M18/M22 A3037 RMK AO2 SLP303 T11831222
Freight Data
(for Feb 1, 2023)
Load Factor:
31%
Manifested Cargo: 35,918lbs
Financial History
Total Freight: 78,390lbs
Average Load: 0lbs/flt
Fuel Used: 20,564lbs
Avg. Fuel Used: 0lbs/flt
Fuel Expense: $12,133
Avg. Fuel Expense: $0
Avg. Fuel Cost: $0/lbs
Total Gross Income: $199,895
Pilot Pay: $79
Total Expenses: $38,928
Total Revenue: $148,333
Average Revenue: $0

Capitol Logistics 477




KRDU
Raleigh Durham International Airport
Raleigh-durham, North Carolina
KRFD
Chicago/Rockford International Airport
Rockford, Illinois

Activity Log

Date Flight Route Aircraft Duration
07/22/2022 CPX477 Not Available B763 2h 02m